Hillisburg, Indiana
Current Conditions -  °F | °C
As of 1:15 AM on Thursday 29 Jan 2015 (Local Time) from KTYQ Reporting Station
Clear Clear  
Wind Chill: 23°   Ceiling: Unl
Heat Index: 34°   Visibility: 10mi
Dew Point: 19°   Wind: 20mph
Humidity: 54%   Direction: 160°SSE
Pressure: 29.95"   Gusts: 24mph
Location:  40.29°N, 86.34°W
Report Text: KTYQ 290615Z AUTO 16017G21KT 10SM CLR 01/M07 A2995 RMK AO2 T00111073
Loading
Personal Weather Stations






























Interactive Weather Map New forecast layout! Learn more

10-Day Weather Forecast

Advertisements
Track Severe Weather on mobile